createdAt,value
2022-08-11T00:01:57.182Z,41.07
2022-08-11T00:04:28.274Z,40.85
2022-08-11T00:06:58.551Z,40.02
2022-08-11T00:09:30.604Z,40.02
2022-08-11T00:12:01.191Z,40.38
2022-08-11T00:14:37.020Z,39.23
2022-08-11T00:17:13.003Z,40.33
2022-08-11T00:20:12.751Z,41.09
2022-08-11T00:22:23.668Z,40.95
2022-08-11T00:24:58.544Z,40.95
2022-08-11T00:27:36.160Z,40.49
2022-08-11T00:30:10.918Z,40.13
2022-08-11T00:32:42.719Z,40.13
2022-08-11T00:35:51.414Z,40.44
2022-08-11T00:37:51.121Z,40.44
2022-08-11T00:40:29.385Z,39.91
2022-08-11T00:43:20.313Z,40.58
2022-08-11T00:46:05.268Z,40.35
2022-08-11T00:48:40.105Z,39.69
2022-08-11T00:52:05.174Z,39.93
2022-08-11T00:54:24.669Z,39.93
2022-08-11T00:57:37.272Z,40.25
2022-08-11T00:59:58.878Z,39.73
2022-08-11T01:02:50.122Z,39.34
2022-08-11T01:05:38.885Z,39.34
2022-08-11T01:08:27.633Z,39.62
2022-08-11T01:11:06.464Z,39.37
2022-08-11T01:13:58.288Z,40.64
2022-08-11T01:16:53.187Z,40.64
2022-08-11T01:20:43.564Z,40.22
2022-08-11T01:22:42.480Z,39.57
2022-08-11T01:25:57.279Z,40.30
2022-08-11T01:28:25.625Z,40.30
2022-08-11T01:31:26.676Z,39.70
2022-08-11T01:34:16.556Z,39.78
2022-08-11T01:36:56.772Z,39.29
2022-08-11T01:39:34.310Z,39.61
2022-08-11T01:42:40.470Z,38.33
2022-08-11T01:45:16.109Z,38.94
2022-08-11T01:48:21.162Z,38.94
2022-08-11T01:51:17.031Z,39.05
2022-08-11T01:54:07.466Z,38.66
2022-08-11T01:57:02.061Z,38.66
2022-08-11T01:59:34.537Z,38.74
2022-08-11T02:02:24.558Z,38.74
2022-08-11T02:05:05.913Z,39.07
2022-08-11T02:07:40.843Z,39.54
2022-08-11T02:10:51.452Z,38.38
2022-08-11T02:13:43.417Z,38.59
2022-08-11T02:16:28.711Z,38.59
2022-08-11T02:19:24.292Z,38.09
2022-08-11T02:22:22.816Z,38.09
2022-08-11T02:24:57.548Z,38.38
2022-08-11T02:27:29.506Z,38.26
2022-08-11T02:30:05.837Z,38.71
2022-08-11T02:33:21.460Z,39.45
2022-08-11T02:35:53.426Z,39.05
2022-08-11T02:38:37.780Z,39.28
2022-08-11T02:41:47.523Z,39.28
2022-08-11T02:44:36.075Z,38.14
2022-08-11T02:47:08.242Z,38.58
2022-08-11T02:50:06.602Z,38.64
2022-08-11T02:53:02.452Z,39.38
2022-08-11T02:55:59.114Z,39.38
2022-08-11T02:58:31.155Z,38.62
2022-08-11T03:01:27.350Z,38.70
2022-08-11T03:04:11.569Z,39.54
2022-08-11T03:06:52.538Z,39.71
2022-08-11T03:09:30.324Z,39.71
2022-08-11T03:12:23.174Z,38.95
2022-08-11T03:15:24.927Z,39.49
2022-08-11T03:18:26.714Z,39.49
2022-08-11T03:21:18.314Z,39.21
2022-08-11T03:24:04.104Z,40.00
2022-08-11T03:26:39.035Z,39.90
2022-08-11T03:29:11.104Z,39.90
2022-08-11T03:32:01.703Z,40.88
2022-08-11T03:34:35.747Z,40.15
2022-08-11T03:37:40.450Z,40.15
2022-08-11T03:40:19.894Z,40.85
2022-08-11T03:42:57.716Z,39.51
2022-08-11T03:45:50.874Z,39.51
2022-08-11T03:48:22.915Z,39.64
2022-08-11T03:51:01.431Z,41.44
2022-08-11T03:53:45.796Z,40.37
2022-08-11T03:56:26.652Z,40.37
2022-08-11T03:59:04.961Z,41.65
2022-08-11T04:01:53.386Z,41.65
2022-08-11T04:04:42.166Z,42.20
2022-08-11T04:07:21.961Z,42.20
2022-08-11T04:10:10.771Z,40.37
2022-08-11T04:13:15.934Z,40.74
2022-08-11T04:16:11.849Z,39.98
2022-08-11T04:18:59.806Z,39.98
2022-08-11T04:21:56.827Z,41.04
2022-08-11T04:24:35.360Z,42.03
2022-08-11T04:27:20.419Z,42.35
2022-08-11T04:30:14.853Z,40.97
2022-08-11T04:33:05.315Z,43.03
2022-08-11T04:36:01.763Z,42.90
2022-08-11T04:38:36.979Z,42.94
2022-08-11T04:41:17.743Z,42.77
2022-08-11T04:44:17.148Z,42.77
2022-08-11T04:47:05.825Z,42.34
2022-08-11T04:50:12.995Z,41.91
2022-08-11T04:53:31.552Z,41.42
2022-08-11T04:56:27.202Z,41.42
2022-08-11T04:59:45.410Z,40.36
2022-08-11T05:02:51.070Z,40.42
2022-08-11T05:05:56.242Z,40.67
2022-08-11T05:08:31.761Z,39.89
2022-08-11T05:11:28.291Z,39.63
2022-08-11T05:14:33.453Z,39.30
2022-08-11T05:17:29.464Z,38.94
2022-08-11T05:20:18.527Z,39.40
2022-08-11T05:23:10.762Z,38.59
2022-08-11T05:26:44.838Z,38.59
2022-08-11T05:28:54.211Z,39.98
2022-08-11T05:31:44.002Z,40.40
2022-08-11T05:34:36.951Z,40.79
2022-08-11T05:37:26.230Z,40.79
2022-08-11T05:40:06.349Z,40.04
2022-08-11T05:42:59.225Z,42.21
2022-08-11T05:46:04.077Z,42.82
2022-08-11T05:48:37.900Z,42.82
2022-08-11T05:51:30.153Z,43.51
2022-08-11T05:54:28.250Z,43.47
2022-08-11T05:57:00.090Z,43.47
2022-08-11T05:59:30.535Z,44.81
2022-08-11T06:02:05.133Z,46.93
2022-08-11T06:04:35.476Z,46.93
2022-08-11T06:07:10.398Z,47.99
2022-08-11T06:09:51.837Z,48.57
2022-08-11T06:12:23.897Z,47.67
2022-08-11T06:14:55.810Z,47.16
2022-08-11T06:17:38.862Z,47.74
2022-08-11T06:20:07.497Z,47.74
2022-08-11T06:22:37.252Z,47.69
2022-08-11T06:25:09.441Z,48.15
2022-08-11T06:27:40.908Z,48.15
2022-08-11T06:30:18.800Z,47.52
2022-08-11T06:32:49.940Z,47.58
2022-08-11T06:35:24.772Z,46.80
2022-08-11T06:38:11.910Z,46.43
2022-08-11T06:40:48.158Z,46.43
2022-08-11T06:43:27.339Z,47.57
2022-08-11T06:46:05.309Z,48.14
2022-08-11T06:48:35.409Z,48.51
2022-08-11T06:51:14.443Z,48.88
2022-08-11T06:53:56.303Z,48.26
2022-08-11T06:56:46.826Z,48.26
2022-08-11T06:59:36.465Z,50.80
2022-08-11T07:02:30.971Z,48.77
2022-08-11T07:05:08.696Z,52.57
2022-08-11T07:08:35.053Z,52.11
2022-08-11T07:11:29.527Z,51.41
2022-08-11T07:14:19.408Z,51.41
2022-08-11T07:16:51.425Z,48.92
2022-08-11T07:19:40.854Z,47.95
2022-08-11T07:22:31.215Z,50.47
2022-08-11T07:25:20.953Z,52.09
2022-08-11T07:28:10.300Z,52.28
2022-08-11T07:30:42.042Z,51.07
2022-08-11T07:34:05.650Z,51.07
2022-08-11T07:35:47.426Z,51.40
2022-08-11T07:38:25.413Z,50.39
2022-08-11T07:40:53.690Z,50.39
2022-08-11T07:43:23.004Z,51.52
2022-08-11T07:46:10.004Z,50.96
2022-08-11T07:48:58.068Z,50.94
2022-08-11T07:51:45.067Z,51.71
2022-08-11T07:54:17.046Z,52.72
2022-08-11T07:56:55.605Z,52.72
2022-08-11T07:59:57.562Z,51.55
2022-08-11T08:02:29.421Z,51.55
2022-08-11T08:05:21.092Z,52.47
2022-08-11T08:08:08.107Z,52.91
2022-08-11T08:10:57.068Z,53.83
2022-08-11T08:13:44.188Z,52.93
2022-08-11T08:16:32.359Z,50.84
2022-08-11T08:19:01.740Z,50.84
2022-08-11T08:21:32.575Z,50.63
2022-08-11T08:24:02.293Z,52.17
2022-08-11T08:26:51.671Z,52.11
2022-08-11T08:29:39.592Z,50.60
2022-08-11T08:32:11.456Z,51.74
2022-08-11T08:34:44.472Z,51.72
2022-08-11T08:37:46.178Z,52.14
2022-08-11T08:39:49.215Z,52.21
2022-08-11T08:42:26.293Z,51.71
2022-08-11T08:45:03.843Z,51.71
2022-08-11T08:47:43.133Z,52.28
2022-08-11T08:50:18.665Z,52.28
2022-08-11T08:52:51.135Z,50.45
2022-08-11T08:55:22.299Z,50.07
2022-08-11T08:57:54.028Z,50.07
2022-08-11T09:00:23.993Z,49.29
2022-08-11T09:02:53.939Z,49.29
2022-08-11T09:05:24.796Z,49.03
2022-08-11T09:07:57.501Z,49.03
2022-08-11T09:10:29.818Z,49.35
2022-08-11T09:13:00.816Z,49.85
2022-08-11T09:15:30.997Z,50.04
2022-08-11T09:18:07.116Z,49.22
2022-08-11T09:20:38.846Z,48.42
2022-08-11T09:26:20.428Z,48.00
2022-08-11T09:28:53.758Z,48.00
2022-08-11T09:31:23.702Z,48.32
2022-08-11T09:33:55.933Z,51.09
2022-08-11T09:36:43.748Z,51.53
2022-08-11T09:39:32.641Z,49.41
2022-08-11T09:42:04.475Z,50.21
2022-08-11T09:44:52.608Z,50.21
2022-08-11T09:47:32.753Z,52.19
2022-08-11T09:50:04.133Z,50.00
2022-08-11T09:52:36.114Z,50.58
2022-08-11T09:55:12.973Z,50.71
2022-08-11T09:58:02.139Z,50.71
2022-08-11T10:00:35.740Z,50.17
2022-08-11T10:03:09.629Z,51.17
2022-08-11T10:05:58.388Z,52.08
2022-08-11T10:08:33.432Z,50.03
2022-08-11T10:11:03.124Z,50.03
2022-08-11T10:14:32.882Z,51.01
2022-08-11T10:16:15.426Z,50.80
2022-08-11T10:18:43.123Z,48.84
2022-08-11T10:21:15.208Z,48.84
2022-08-11T10:24:06.031Z,48.87
2022-08-11T10:26:55.104Z,48.87
2022-08-11T10:29:52.021Z,47.95
2022-08-11T10:32:57.650Z,48.11
2022-08-11T10:35:14.715Z,48.31
2022-08-11T10:38:07.650Z,47.76
2022-08-11T10:40:22.686Z,47.18
2022-08-11T10:43:03.462Z,47.18
2022-08-11T10:45:52.249Z,46.99
2022-08-11T10:48:23.562Z,47.85
2022-08-11T10:51:13.184Z,47.17
2022-08-11T10:54:02.939Z,47.17
2022-08-11T10:56:52.286Z,48.81
2022-08-11T10:59:22.486Z,47.74
2022-08-11T11:01:53.861Z,47.56
2022-08-11T11:04:34.413Z,47.73
2022-08-11T11:07:11.024Z,47.73
2022-08-11T11:09:51.698Z,46.92
2022-08-11T11:12:49.815Z,46.08
2022-08-11T11:15:40.052Z,47.69
2022-08-11T11:18:12.213Z,46.59
2022-08-11T11:20:47.988Z,46.59
2022-08-11T11:23:28.874Z,49.83
2022-08-11T11:26:27.647Z,49.83
2022-08-11T11:29:29.372Z,46.55
2022-08-11T11:32:07.373Z,47.27
2022-08-11T11:34:59.720Z,47.27
2022-08-11T11:37:31.557Z,47.87
2022-08-11T11:40:03.429Z,48.02
2022-08-11T11:42:33.102Z,46.97
2022-08-11T11:45:04.091Z,46.97
2022-08-11T11:47:34.709Z,48.43
2022-08-11T11:50:04.893Z,47.42
2022-08-11T11:52:34.558Z,47.42
2022-08-11T11:55:05.441Z,45.71
2022-08-11T11:57:59.373Z,45.96
2022-08-11T12:00:43.541Z,46.78
2022-08-11T12:03:14.600Z,45.83
2022-08-11T12:05:45.497Z,45.83
2022-08-11T12:08:23.383Z,45.84
2022-08-11T12:11:23.860Z,46.88
2022-08-11T12:13:55.236Z,47.62
2022-08-11T12:16:34.592Z,47.62
2022-08-11T12:18:59.923Z,47.02
2022-08-11T12:21:31.043Z,47.41
2022-08-11T12:24:20.022Z,48.89
2022-08-11T12:27:15.763Z,48.16
2022-08-11T12:29:29.170Z,47.30
2022-08-11T12:32:00.650Z,46.86
2022-08-11T12:34:30.659Z,47.07
2022-08-11T12:37:05.984Z,47.07
2022-08-11T12:40:16.626Z,46.93
2022-08-11T12:42:44.569Z,47.78
2022-08-11T12:45:28.770Z,46.87
2022-08-11T12:49:00.750Z,49.10
2022-08-11T12:51:20.627Z,49.10
2022-08-11T12:53:58.595Z,48.62
2022-08-11T12:56:48.421Z,46.92
2022-08-11T12:59:35.623Z,46.92
2022-08-11T13:02:23.276Z,48.66
2022-08-11T13:04:59.112Z,48.66
2022-08-11T13:07:50.566Z,47.44
2022-08-11T13:10:07.808Z,46.37
2022-08-11T13:26:16.080Z,45.89
2022-08-11T13:28:49.474Z,46.40
2022-08-11T13:31:19.015Z,46.07
2022-08-11T13:33:52.069Z,46.06
2022-08-11T13:36:25.168Z,45.96
2022-08-11T13:38:58.849Z,45.96
2022-08-11T13:41:41.060Z,46.75
2022-08-11T13:44:12.816Z,45.86
2022-08-11T13:46:44.405Z,47.17
2022-08-11T13:49:15.521Z,46.27
2022-08-11T13:51:45.712Z,46.00
2022-08-11T13:54:20.349Z,46.05
2022-08-11T13:56:53.179Z,46.05
2022-08-11T13:59:30.326Z,45.30
2022-08-11T14:02:19.795Z,46.36
2022-08-11T14:04:46.862Z,45.26
2022-08-11T14:07:18.858Z,45.26
2022-08-11T14:09:55.583Z,46.11
2022-08-11T14:12:43.875Z,46.33
2022-08-11T14:15:17.073Z,45.32
2022-08-11T14:17:49.413Z,44.60
2022-08-11T14:20:39.972Z,46.28
2022-08-11T14:22:53.436Z,46.28
2022-08-11T14:25:22.842Z,46.24
2022-08-11T14:28:30.355Z,45.21
2022-08-11T14:30:46.816Z,45.95
2022-08-11T14:33:20.385Z,45.79
2022-08-11T14:35:48.922Z,45.17
2022-08-11T14:38:20.250Z,44.92
2022-08-11T14:41:08.696Z,45.42
2022-08-11T14:44:10.566Z,44.89
2022-08-11T14:46:45.796Z,45.46
2022-08-11T14:49:15.624Z,45.37
2022-08-11T14:51:47.129Z,44.92
2022-08-11T14:54:37.552Z,44.92
2022-08-11T14:57:07.334Z,45.15
2022-08-11T14:59:37.590Z,45.15
2022-08-11T15:02:26.350Z,45.89
2022-08-11T15:04:56.339Z,45.89
2022-08-11T15:07:27.898Z,45.36
2022-08-11T15:10:12.399Z,45.21
2022-08-11T15:12:34.351Z,45.21
2022-08-11T15:15:24.398Z,44.78
2022-08-11T15:17:59.962Z,44.78
2022-08-11T15:20:48.095Z,45.51
2022-08-11T15:23:37.245Z,45.05
2022-08-11T15:26:18.327Z,45.64
2022-08-11T15:29:10.403Z,45.87
2022-08-11T15:31:49.174Z,45.87
2022-08-11T15:34:36.399Z,45.46
2022-08-11T15:37:25.777Z,46.05
2022-08-11T15:40:31.204Z,46.20
2022-08-11T15:43:37.288Z,44.73
2022-08-11T15:46:15.165Z,44.73
2022-08-11T15:48:50.121Z,44.69
2022-08-11T15:51:30.886Z,45.20
2022-08-11T15:54:07.114Z,45.20
2022-08-11T15:56:36.526Z,45.19
2022-08-11T15:59:41.700Z,46.10
2022-08-11T16:02:16.874Z,46.10
2022-08-11T16:04:48.443Z,46.00
2022-08-11T16:07:22.199Z,45.92
2022-08-11T16:09:59.603Z,45.92
2022-08-11T16:12:32.290Z,46.66
2022-08-11T16:15:25.044Z,46.66
2022-08-11T16:18:03.013Z,47.12
2022-08-11T16:20:32.715Z,47.12
2022-08-11T16:23:04.662Z,45.56
2022-08-11T16:27:01.791Z,46.25
2022-08-11T16:28:08.537Z,46.87
2022-08-11T16:30:43.302Z,45.70
2022-08-11T16:33:50.762Z,45.20
2022-08-11T16:36:05.442Z,45.20
2022-08-11T16:38:39.261Z,45.51
2022-08-11T16:41:11.795Z,46.27
2022-08-11T16:44:01.684Z,46.27
2022-08-11T16:46:49.908Z,46.02
2022-08-11T16:49:21.868Z,46.46
2022-08-11T16:51:51.401Z,46.39
2022-08-11T16:54:21.401Z,46.39
2022-08-11T16:56:53.363Z,46.54
2022-08-11T16:59:37.424Z,46.15
2022-08-11T17:02:16.932Z,45.86
2022-08-11T17:05:12.493Z,45.84
2022-08-11T17:08:02.218Z,47.78
2022-08-11T17:10:57.794Z,45.24
2022-08-11T17:13:31.254Z,45.24
2022-08-11T17:16:09.227Z,47.12
2022-08-11T17:18:41.551Z,47.12
2022-08-11T17:21:30.060Z,44.69
2022-08-11T17:24:09.373Z,46.59
2022-08-11T17:26:59.909Z,47.44
2022-08-11T17:29:54.427Z,46.09
2022-08-11T17:32:56.418Z,46.09
2022-08-11T17:35:37.217Z,48.15
2022-08-11T17:38:09.320Z,46.27
2022-08-11T17:41:08.099Z,46.27
2022-08-11T17:43:55.621Z,47.27
2022-08-11T17:46:44.373Z,47.27
2022-08-11T17:49:16.950Z,47.60
2022-08-11T17:52:06.323Z,47.60
2022-08-11T17:54:55.729Z,46.68
2022-08-11T17:57:47.658Z,46.55
2022-08-11T18:00:16.052Z,46.55
2022-08-11T18:03:04.615Z,44.93
2022-08-11T18:05:36.555Z,46.54
2022-08-11T18:08:26.311Z,46.41
2022-08-11T18:11:24.397Z,46.41
2022-08-11T18:14:06.161Z,46.07
2022-08-11T18:16:53.197Z,46.10
2022-08-11T18:19:40.314Z,45.36
2022-08-11T18:22:29.640Z,46.10
2022-08-11T18:25:21.761Z,46.99
2022-08-11T18:28:11.812Z,46.99
2022-08-11T18:31:03.502Z,46.51
2022-08-11T18:34:06.567Z,47.12
2022-08-11T18:36:44.261Z,46.27
2022-08-11T18:39:32.902Z,45.14
2022-08-11T18:42:29.282Z,45.14
2022-08-11T18:45:13.855Z,45.00
2022-08-11T18:48:02.573Z,45.00
2022-08-11T18:51:30.981Z,42.98
2022-08-11T18:53:41.113Z,42.99
2022-08-11T18:56:28.131Z,43.18
2022-08-11T18:59:18.401Z,43.18
2022-08-11T19:02:05.483Z,43.28
2022-08-11T19:04:53.042Z,43.47
2022-08-11T19:07:40.237Z,42.90
2022-08-11T19:10:28.429Z,44.16
2022-08-11T19:13:17.398Z,44.16
2022-08-11T19:16:05.435Z,44.11
2022-08-11T19:18:55.265Z,44.19
2022-08-11T19:21:43.689Z,43.13
2022-08-11T19:24:30.957Z,43.61
2022-08-11T19:27:19.302Z,43.61
2022-08-11T19:30:13.881Z,45.52
2022-08-11T19:32:59.023Z,44.97
2022-08-11T19:35:47.442Z,44.45
2022-08-11T19:38:35.400Z,44.45
2022-08-11T19:41:56.277Z,43.80
2022-08-11T19:44:16.554Z,43.91
2022-08-11T19:47:05.174Z,43.88
2022-08-11T19:49:52.503Z,43.88
2022-08-11T19:52:40.205Z,44.06
2022-08-11T19:55:28.034Z,43.57
2022-08-11T19:58:15.501Z,43.62
2022-08-11T20:01:02.735Z,43.65
2022-08-11T20:03:49.665Z,43.57
2022-08-11T20:06:37.854Z,43.09
2022-08-11T20:09:26.720Z,43.17
2022-08-11T20:12:17.598Z,44.64
2022-08-11T20:15:08.170Z,44.24
2022-08-11T20:17:57.360Z,42.98
2022-08-11T20:20:46.737Z,43.06
2022-08-11T20:23:36.768Z,43.06
2022-08-11T20:26:31.183Z,43.58
2022-08-11T20:29:16.768Z,44.09
2022-08-11T20:32:06.598Z,44.09
2022-08-11T20:34:55.974Z,42.56
2022-08-11T20:37:50.756Z,42.99
2022-08-11T20:40:36.818Z,42.99
2022-08-11T20:44:07.403Z,42.25
2022-08-11T20:46:14.251Z,43.19
2022-08-11T20:49:03.795Z,42.60
2022-08-11T20:51:52.934Z,42.60
2022-08-11T20:54:43.828Z,42.80
2022-08-11T20:57:54.595Z,42.80
2022-08-11T21:00:39.481Z,42.45
2022-08-11T21:03:15.854Z,43.77
2022-08-11T21:06:09.574Z,42.68
2022-08-11T21:08:56.520Z,42.68
2022-08-11T21:11:45.521Z,42.13
2022-08-11T21:14:33.139Z,41.54
2022-08-11T21:17:28.225Z,41.64
2022-08-11T21:20:17.049Z,41.03
2022-08-11T21:23:23.515Z,40.31
2022-08-11T21:26:08.515Z,41.15
2022-08-11T21:28:57.571Z,40.09
2022-08-11T21:31:46.412Z,40.33
2022-08-11T21:34:35.672Z,39.82
2022-08-11T21:37:25.622Z,39.82
2022-08-11T21:40:16.933Z,40.60
2022-08-11T21:43:04.325Z,40.18
2022-08-11T21:45:53.223Z,40.23
2022-08-11T21:48:41.040Z,40.94
2022-08-11T21:51:28.872Z,40.60
2022-08-11T21:54:18.888Z,40.41
2022-08-11T21:57:07.008Z,39.80
2022-08-11T22:00:11.446Z,40.51
2022-08-11T22:03:03.398Z,41.03
2022-08-11T22:05:52.846Z,39.92
2022-08-11T22:08:40.150Z,41.16
2022-08-11T22:11:32.316Z,40.58
2022-08-11T22:14:16.949Z,41.10
2022-08-11T22:17:04.067Z,40.55
2022-08-11T22:19:53.037Z,41.31
2022-08-11T22:22:52.034Z,41.31
2022-08-11T22:25:38.333Z,41.58
2022-08-11T22:28:19.614Z,40.89
2022-08-11T22:31:06.630Z,41.32
2022-08-11T22:34:02.834Z,40.58
2022-08-11T22:36:43.347Z,41.14
2022-08-11T22:39:35.420Z,42.04
2022-08-11T22:42:24.051Z,41.27
2022-08-11T22:45:11.043Z,41.24
2022-08-11T22:48:00.094Z,40.97
2022-08-11T22:50:47.928Z,41.11
2022-08-11T22:53:57.521Z,41.11
2022-08-11T22:56:32.755Z,41.70
2022-08-11T22:59:15.545Z,41.70
2022-08-11T23:02:03.238Z,41.90
2022-08-11T23:04:53.070Z,41.62
2022-08-11T23:07:51.047Z,42.01
2022-08-11T23:10:30.563Z,42.97
2022-08-11T23:13:22.299Z,42.61
2022-08-11T23:16:07.025Z,44.28
2022-08-11T23:18:53.882Z,43.97
2022-08-11T23:21:41.902Z,43.12
2022-08-11T23:24:29.912Z,43.12
2022-08-11T23:27:19.339Z,42.95
2022-08-11T23:30:09.098Z,42.17
2022-08-11T23:32:58.056Z,41.87
2022-08-11T23:35:54.881Z,41.87
2022-08-11T23:38:35.825Z,41.82
2022-08-11T23:41:24.564Z,41.88
2022-08-11T23:44:12.065Z,41.88
2022-08-11T23:47:00.717Z,41.63
2022-08-11T23:49:48.347Z,41.99
2022-08-11T23:52:35.990Z,42.50
2022-08-11T23:55:23.934Z,42.76
2022-08-11T23:58:11.644Z,42.76
